Time;durP1;ratioP1;P1;durP2;ratioP2;P2;SDS_P1;SDS_P2;PMS_P1;PMS_P2;Temp;Humidity;BMP_temperature;BMP_pressure;BME280_temperature;BME280_humidity;BME280_pressure;Samples;Min_cycle;Max_cycle;Signal;HPM_P1;HPM_P2
2021/12/14 00:01:42;;;;;;;218.87;135.57;;;13.90;79.80;;;;;;5187393;28;20427;-33
2021/12/14 00:04:21;;;;;;;191.77;119.40;;;13.90;79.80;;;;;;5187186;28;20052;-34
2021/12/14 00:06:53;;;;;;;201.63;125.03;;;13.90;79.80;;;;;;5187001;28;20502;-32
2021/12/14 00:09:34;;;;;;;192.30;120.33;;;13.90;79.70;;;;;;5169737;28;20111;-33
2021/12/14 00:12:42;;;;;;;220.03;134.27;;;13.90;79.70;;;;;;5187377;28;20041;-34
2021/12/14 00:15:15;;;;;;;219.00;140.00;;;13.90;79.70;;;;;;5174302;28;20400;-34
2021/12/14 00:17:58;;;;;;;217.45;136.70;;;13.90;79.70;;;;;;5186788;28;20129;-31
2021/12/14 00:20:36;;;;;;;194.40;122.45;;;13.90;79.70;;;;;;5187444;28;20078;-32
2021/12/14 00:25:43;;;;;;;160.07;99.53;;;13.90;79.70;;;;;;5186742;28;20115;-32
2021/12/14 00:28:36;;;;;;;158.13;98.83;;;13.90;79.80;;;;;;5187009;28;20088;-32
2021/12/14 00:31:10;;;;;;;154.67;95.87;;;13.90;79.70;;;;;;5172369;28;20053;-34
2021/12/14 00:33:42;;;;;;;180.07;109.80;;;13.90;79.70;;;;;;5169386;28;20545;-32
2021/12/14 00:36:13;;;;;;;179.83;110.23;;;13.90;79.80;;;;;;5186681;28;20073;-32
2021/12/14 00:38:45;;;;;;;167.67;103.07;;;13.90;80.10;;;;;;5186504;28;20049;-32
2021/12/14 00:41:18;;;;;;;163.53;101.60;;;13.90;80.40;;;;;;5168905;28;20077;-34
2021/12/14 00:43:49;;;;;;;162.80;97.27;;;13.90;80.40;;;;;;5186507;28;20050;-32
2021/12/14 00:46:20;;;;;;;151.80;94.97;;;13.90;80.40;;;;;;5169121;28;20089;-33
2021/12/14 00:48:52;;;;;;;182.10;111.33;;;13.90;80.30;;;;;;5186506;28;20050;-32
2021/12/14 00:51:27;;;;;;;180.97;107.33;;;13.90;80.30;;;;;;5186429;28;20052;-32
2021/12/14 00:53:59;;;;;;;166.03;101.13;;;13.90;80.20;;;;;;5171407;28;20096;-32
2021/12/14 00:56:33;;;;;;;152.87;93.43;;;13.90;80.30;;;;;;5190255;28;20128;-32
2021/12/14 00:59:05;;;;;;;151.93;95.67;;;13.90;80.30;;;;;;5190485;28;20049;-32
2021/12/14 01:01:39;;;;;;;148.13;93.73;;;13.90;80.30;;;;;;5189973;28;20081;-32
2021/12/14 01:04:33;;;;;;;153.83;93.23;;;13.90;80.30;;;;;;5190127;28;20100;-32
2021/12/14 01:07:04;;;;;;;;;;;13.90;80.20;;;;;;5190302;28;20518;-33
2021/12/14 01:09:37;;;;;;;155.53;97.03;;;13.90;80.20;;;;;;5190047;28;19929;-34
2021/12/14 01:12:14;;;;;;;146.60;90.33;;;13.90;80.30;;;;;;5189934;28;20042;-34
2021/12/14 01:15:10;;;;;;;145.50;90.77;;;13.90;80.30;;;;;;5190012;28;20120;-32
2021/12/14 01:17:54;;;;;;;140.60;91.37;;;13.90;80.30;;;;;;5190257;28;20519;-33
2021/12/14 01:20:31;;;;;;;146.90;92.53;;;13.90;80.20;;;;;;5190429;28;20091;-32
2021/12/14 01:23:13;;;;;;;145.60;95.60;;;13.90;80.20;;;;;;5174023;28;20487;-32
2021/12/14 01:25:48;;;;;;;138.60;91.67;;;13.90;80.10;;;;;;5189792;28;20120;-33
2021/12/14 01:28:21;;;;;;;142.67;93.03;;;13.90;80.20;;;;;;5172323;28;20046;-31
2021/12/14 01:31:09;;;;;;;154.47;99.70;;;13.90;80.50;;;;;;5172165;28;20048;-31
2021/12/14 01:33:42;;;;;;;141.90;91.83;;;13.80;80.80;;;;;;5189713;28;20570;-32
2021/12/14 01:36:27;;;;;;;;;;;13.90;80.90;;;;;;5172878;28;20045;-32
2021/12/14 01:39:24;;;;;;;139.68;88.47;;;13.90;80.80;;;;;;5189887;28;20370;-34
2021/12/14 01:42:09;;;;;;;129.80;85.23;;;13.90;80.80;;;;;;5189973;28;20092;-31
2021/12/14 01:44:44;;;;;;;137.17;86.03;;;13.90;80.80;;;;;;5189784;28;20045;-34
2021/12/14 01:47:28;;;;;;;137.20;88.10;;;13.90;80.80;;;;;;5172072;28;20046;-32
2021/12/14 01:49:59;;;;;;;;;;;13.90;80.70;;;;;;5174312;28;20042;-33
2021/12/14 01:52:32;;;;;;;139.67;87.77;;;13.90;80.60;;;;;;5189492;28;20432;-32
2021/12/14 01:55:23;;;;;;;142.13;90.70;;;13.90;80.50;;;;;;5171636;28;20128;-31
2021/12/14 01:57:56;;;;;;;144.47;93.53;;;13.90;80.50;;;;;;5189134;28;20436;-33
2021/12/14 02:00:40;;;;;;;136.37;92.03;;;13.90;80.50;;;;;;5189100;28;20050;-32
2021/12/14 02:03:13;;;;;;;129.57;85.37;;;13.90;80.50;;;;;;5171705;28;20121;-32
2021/12/14 02:05:46;;;;;;;141.77;91.75;;;13.90;80.40;;;;;;5170573;28;20054;-33
2021/12/14 02:08:20;;;;;;;138.47;88.30;;;13.90;80.40;;;;;;5155649;28;20046;-33
2021/12/14 02:10:51;;;;;;;143.77;89.30;;;13.90;80.60;;;;;;5155477;28;20042;-32
2021/12/14 02:13:27;;;;;;;135.80;86.93;;;13.90;80.70;;;;;;5188774;28;20046;-32
2021/12/14 02:15:58;;;;;;;138.07;88.17;;;13.90;80.60;;;;;;5188656;28;20053;-32
2021/12/14 02:18:30;;;;;;;143.93;89.60;;;13.90;80.60;;;;;;5171842;28;20089;-32
2021/12/14 02:21:09;;;;;;;142.30;90.53;;;13.90;80.70;;;;;;5171165;28;20116;-32
2021/12/14 02:23:44;;;;;;;136.37;88.50;;;13.90;80.90;;;;;;5189039;28;20045;-32
2021/12/14 02:26:17;;;;;;;141.30;90.33;;;13.80;81.00;;;;;;5188546;28;20054;-34
2021/12/14 02:28:50;;;;;;;141.73;88.70;;;13.90;81.00;;;;;;5171943;28;20065;-33
2021/12/14 02:31:22;;;;;;;142.20;85.43;;;13.90;80.90;;;;;;5155441;28;20395;-32
2021/12/14 02:33:55;;;;;;;138.77;88.35;;;13.90;80.80;;;;;;5171115;28;20479;-32
2021/12/14 02:36:28;;;;;;;143.70;90.30;;;13.90;80.80;;;;;;5170872;28;20069;-34
2021/12/14 02:39:08;;;;;;;138.93;87.82;;;13.90;80.80;;;;;;5188439;28;20553;-32
2021/12/14 02:41:47;;;;;;;148.27;90.37;;;13.90;80.80;;;;;;5188851;28;20124;-32
2021/12/14 02:44:18;;;;;;;139.90;88.77;;;13.90;80.80;;;;;;5188032;28;20052;-32
2021/12/14 02:46:52;;;;;;;138.43;90.43;;;13.90;80.80;;;;;;5188288;28;20038;-32
2021/12/14 02:49:25;;;;;;;134.97;88.93;;;13.90;80.80;;;;;;5188252;28;20053;-31
2021/12/14 02:52:24;;;;;;;141.65;87.80;;;13.90;80.80;;;;;;5170786;28;20128;-32
2021/12/14 02:55:03;;;;;;;141.57;88.93;;;13.90;80.70;;;;;;5187795;28;20042;-33
2021/12/14 02:57:35;;;;;;;145.63;90.17;;;13.90;80.80;;;;;;5171423;28;20475;-33
2021/12/14 03:00:21;;;;;;;139.88;87.65;;;13.90;80.80;;;;;;5188541;28;20045;-32
2021/12/14 03:02:52;;;;;;;140.07;86.37;;;13.90;80.80;;;;;;5155184;28;20100;-32
2021/12/14 03:05:26;;;;;;;137.50;86.40;;;13.90;80.80;;;;;;5187561;28;20064;-32
2021/12/14 03:08:06;;;;;;;141.17;89.17;;;13.90;80.90;;;;;;5170423;28;20058;-33
2021/12/14 03:10:52;;;;;;;141.70;90.73;;;13.90;80.80;;;;;;5187986;28;20100;-32
2021/12/14 03:13:27;;;;;;;141.90;90.17;;;13.90;80.80;;;;;;5188022;28;20088;-34
2021/12/14 03:16:00;;;;;;;141.43;88.77;;;13.90;80.90;;;;;;5187275;28;20041;-32
2021/12/14 03:18:34;;;;;;;140.98;86.78;;;13.80;81.20;;;;;;5187744;28;20042;-31
2021/12/14 03:21:10;;;;;;;145.27;94.23;;;13.80;81.40;;;;;;5187556;28;20117;-32
2021/12/14 03:23:42;;;;;;;144.97;96.57;;;13.80;81.40;;;;;;5187551;28;20057;-34
2021/12/14 03:26:15;;;;;;;144.37;97.37;;;13.80;81.30;;;;;;5187465;28;20495;-32
2021/12/14 03:28:50;;;;;;;141.10;93.82;;;13.90;81.30;;;;;;5187895;28;20498;-32
2021/12/14 03:31:25;;;;;;;141.93;90.63;;;13.90;81.30;;;;;;5187587;28;20052;-32
2021/12/14 03:34:07;;;;;;;138.07;87.63;;;13.90;81.20;;;;;;5187822;28;20045;-34
2021/12/14 03:36:50;;;;;;;138.03;87.73;;;13.90;81.10;;;;;;5169809;28;20128;-32
2021/12/14 03:39:23;;;;;;;142.63;90.60;;;13.90;81.10;;;;;;5170132;28;20073;-32
2021/12/14 03:42:00;;;;;;;140.20;87.77;;;13.90;81.10;;;;;;5153965;28;20483;-33
2021/12/14 03:44:53;;;;;;;138.50;89.57;;;13.90;81.10;;;;;;5187453;28;20046;-32
2021/12/14 03:47:26;;;;;;;135.88;86.95;;;13.90;81.00;;;;;;5187368;28;20046;-32
2021/12/14 03:50:12;;;;;;;137.48;86.97;;;13.90;81.10;;;;;;5187277;28;20050;-34
2021/12/14 03:52:43;;;;;;;142.17;86.33;;;13.90;81.10;;;;;;5154892;28;20125;-33
2021/12/14 03:55:17;;;;;;;140.00;89.40;;;13.90;81.10;;;;;;5169778;28;20042;-33
2021/12/14 03:57:48;;;;;;;140.10;89.80;;;13.90;81.10;;;;;;5169304;28;20125;-33
2021/12/14 04:00:31;;;;;;;133.67;86.87;;;13.90;81.10;;;;;;5186978;28;20124;-33
2021/12/14 04:03:04;;;;;;;130.40;85.85;;;13.90;81.10;;;;;;5187265;28;20046;-33
2021/12/14 04:05:36;;;;;;;139.40;86.55;;;13.90;81.20;;;;;;5187077;28;20483;-32
2021/12/14 04:08:08;;;;;;;132.73;82.87;;;13.90;81.10;;;;;;5169613;28;20057;-32
2021/12/14 04:10:39;;;;;;;134.13;83.57;;;13.80;81.10;;;;;;5169381;28;20048;-32
2021/12/14 04:13:14;;;;;;;132.63;82.63;;;13.90;81.20;;;;;;5169471;28;20154;-32
2021/12/14 04:15:46;;;;;;;130.53;82.40;;;13.80;81.50;;;;;;5186943;28;20053;-32
2021/12/14 04:18:17;;;;;;;127.23;80.97;;;13.80;81.80;;;;;;5153310;28;20124;-32
2021/12/14 04:20:52;;;;;;;128.60;81.77;;;13.80;81.80;;;;;;5169168;28;20180;-33
2021/12/14 04:23:26;;;;;;;143.97;88.30;;;13.90;81.80;;;;;;5170223;28;20427;-32
2021/12/14 04:25:58;;;;;;;129.77;81.30;;;13.90;81.60;;;;;;5169615;28;20107;-32
2021/12/14 04:28:32;;;;;;;131.07;81.45;;;13.80;81.60;;;;;;5155668;28;20120;-32
2021/12/14 04:31:03;;;;;;;125.73;81.53;;;13.90;81.60;;;;;;5191104;28;20049;-32
2021/12/14 04:33:37;;;;;;;130.30;83.73;;;13.90;81.50;;;;;;5173372;28;20113;-32
2021/12/14 04:36:10;;;;;;;131.43;84.83;;;13.90;81.60;;;;;;5156941;28;20046;-31
2021/12/14 04:38:51;;;;;;;;;;;13.90;81.60;;;;;;5174070;28;20561;-33
2021/12/14 04:53:14;;;;;;;125.77;80.83;;;13.90;81.70;;;;;;5191015;28;20125;-31
2021/12/14 04:55:46;;;;;;;121.53;79.40;;;13.90;82.20;;;;;;5127938;29;20151;-33
2021/12/14 04:58:17;;;;;;;123.47;80.60;;;13.90;81.70;;;;;;5127672;29;20059;-32
2021/12/14 05:00:49;;;;;;;118.03;75.83;;;13.90;81.60;;;;;;5088027;29;20048;-32
2021/12/14 05:03:22;;;;;;;124.43;79.73;;;13.90;81.60;;;;;;5088087;29;20148;-34
2021/12/14 05:06:07;;;;;;;121.37;77.13;;;13.90;81.50;;;;;;5103056;29;20103;-34
2021/12/14 05:11:14;;;;;;;119.63;78.67;;;13.80;82.10;;;;;;5087627;29;20048;-32
2021/12/14 05:13:59;;;;;;;;;;;13.80;82.30;;;;;;5088135;29;20056;-32
2021/12/14 05:16:30;;;;;;;112.63;71.70;;;13.90;82.30;;;;;;5087590;29;19940;-30
2021/12/14 05:19:04;;;;;;;111.17;72.93;;;13.90;82.30;;;;;;5087342;29;20059;-31
2021/12/14 05:21:46;;;;;;;101.83;68.83;;;13.90;82.10;;;;;;5071792;29;20130;-32
2021/12/14 05:24:19;;;;;;;106.47;70.23;;;14.00;82.10;;;;;;5087362;29;20056;-33
2021/12/14 05:26:55;;;;;;;101.00;65.40;;;14.00;81.90;;;;;;5071818;29;20068;-33
2021/12/14 05:29:27;;;;;;;101.20;68.50;;;14.10;81.90;;;;;;5087671;29;20056;-34
2021/12/14 05:31:59;;;;;;;93.87;64.67;;;14.10;81.70;;;;;;5148615;28;20053;-32
2021/12/14 05:34:30;;;;;;;137.53;93.27;;;14.10;81.80;;;;;;5191354;28;20489;-32
2021/12/14 05:37:01;;;;;;;137.00;95.40;;;14.10;82.00;;;;;;5190485;28;20056;-32
2021/12/14 05:45:14;;;;;;;97.80;66.37;;;14.00;82.20;;;;;;5139644;28;20063;-33
2021/12/14 05:47:48;;;;;;;94.05;64.55;;;14.10;82.30;;;;;;5151412;28;20073;-32
2021/12/14 05:50:34;;;;;;;96.20;66.83;;;14.10;82.30;;;;;;5135300;28;20116;-33
2021/12/14 05:53:05;;;;;;;101.20;72.03;;;14.10;82.30;;;;;;5151681;28;20051;-31
2021/12/14 05:55:38;;;;;;;95.30;69.90;;;14.10;82.30;;;;;;5166908;28;20125;-31
2021/12/14 05:58:16;;;;;;;97.82;67.97;;;14.00;82.30;;;;;;5150579;28;20108;-32
2021/12/14 06:00:49;;;;;;;92.27;65.00;;;14.10;82.30;;;;;;5166395;28;20204;-34
2021/12/14 06:03:23;;;;;;;91.30;65.90;;;14.10;82.40;;;;;;5166591;28;20532;-32
2021/12/14 06:05:55;;;;;;;96.77;65.63;;;14.10;82.40;;;;;;5166577;28;20061;-31
2021/12/14 06:08:29;;;;;;;88.20;63.73;;;14.10;82.50;;;;;;5150574;28;20050;-32
2021/12/14 06:11:00;;;;;;;86.77;62.13;;;14.10;82.60;;;;;;5166459;28;20170;-31
2021/12/14 06:13:49;;;;;;;224.87;116.93;;;12.40;85.80;;;;;;5150212;28;20145;-30
2021/12/14 06:16:28;;;;;;;437.37;190.43;;;11.20;89.40;;;;;;5164894;28;20123;-32
2021/12/14 06:19:19;;;;;;;120.10;68.03;;;10.70;90.60;;;;;;5178572;28;20507;-32
2021/12/14 06:21:54;;;;;;;89.03;57.27;;;10.40;91.00;;;;;;5209265;28;20045;-32
2021/12/14 06:24:27;;;;;;;87.17;57.70;;;10.30;91.30;;;;;;5207436;28;20445;-30
2021/12/14 06:27:00;;;;;;;89.87;59.13;;;10.20;91.40;;;;;;5191255;28;20049;-30
2021/12/14 06:29:38;;;;;;;95.83;62.03;;;10.20;91.50;;;;;;5191186;28;20041;-30
2021/12/14 06:32:09;;;;;;;167.60;96.70;;;10.20;91.60;;;;;;5209214;28;20411;-31
2021/12/14 06:34:45;;;;;;;127.00;77.00;;;10.20;91.50;;;;;;5208991;28;20506;-31
2021/12/14 06:37:28;;;;;;;100.53;64.17;;;10.20;91.70;;;;;;5191803;28;20042;-31
2021/12/14 06:40:27;;;;;;;115.03;71.37;;;10.10;91.70;;;;;;5208923;28;20487;-31
2021/12/14 06:43:00;;;;;;;108.97;70.70;;;10.10;91.80;;;;;;5207877;28;20041;-30
2021/12/14 06:45:36;;;;;;;117.35;72.35;;;10.00;92.00;;;;;;5206818;28;20072;-30
2021/12/14 06:48:24;;;;;;;135.50;79.53;;;10.00;91.90;;;;;;5190682;28;20128;-30
2021/12/14 06:51:05;;;;;;;93.53;63.10;;;10.00;92.20;;;;;;5208498;28;20514;-31
2021/12/14 06:53:37;;;;;;;99.87;61.40;;;10.10;92.40;;;;;;5190249;28;20138;-31
2021/12/14 06:56:09;;;;;;;96.77;60.07;;;10.60;91.90;;;;;;5207910;28;20049;-32
2021/12/14 06:59:20;;;;;;;88.70;57.03;;;11.20;91.10;;;;;;5208485;28;20037;-31
2021/12/14 07:01:56;;;;;;;100.07;65.50;;;11.80;90.40;;;;;;5145194;28;20054;-32
2021/12/14 07:04:30;;;;;;;91.00;62.17;;;12.30;89.60;;;;;;5129330;28;20137;-32
2021/12/14 07:07:06;;;;;;;91.17;59.10;;;12.60;88.70;;;;;;5144830;28;20089;-31
2021/12/14 07:09:42;;;;;;;80.13;55.83;;;12.90;87.70;;;;;;5144929;28;20281;-31
2021/12/14 07:12:15;;;;;;;78.67;55.17;;;12.40;88.10;;;;;;5145308;28;20069;-30
2021/12/14 07:14:49;;;;;;;84.50;53.87;;;11.40;90.30;;;;;;5128882;28;20061;-30
2021/12/14 07:17:45;;;;;;;83.23;55.03;;;10.80;91.10;;;;;;5145132;28;20051;-31
2021/12/14 07:20:42;;;;;;;89.90;58.00;;;10.80;91.70;;;;;;5129646;28;20051;-31
2021/12/14 07:23:22;;;;;;;97.10;59.13;;;11.40;91.30;;;;;;5144861;28;20046;-31
2021/12/14 07:25:57;;;;;;;81.77;55.00;;;12.00;90.40;;;;;;5129933;28;20125;-32
2021/12/14 07:28:36;;;;;;;81.47;53.63;;;12.40;89.60;;;;;;5145528;28;20135;-31
2021/12/14 07:31:12;;;;;;;78.43;52.70;;;12.70;88.50;;;;;;5144882;28;20051;-32
2021/12/14 07:33:45;;;;;;;71.13;49.77;;;13.00;87.90;;;;;;5144834;28;20084;-31
2021/12/14 07:36:23;;;;;;;76.65;50.83;;;13.20;87.20;;;;;;5144594;28;20061;-32
2021/12/14 07:38:59;;;;;;;76.70;51.47;;;13.40;86.70;;;;;;5128588;28;20046;-32
2021/12/14 07:41:40;;;;;;;99.13;63.73;;;13.50;86.40;;;;;;5144666;28;20051;-32
2021/12/14 07:44:15;;;;;;;81.93;53.53;;;13.60;86.10;;;;;;5144814;28;20507;-32
2021/12/14 07:46:59;;;;;;;80.70;54.90;;;13.70;85.80;;;;;;5144705;28;20043;-31
2021/12/14 07:50:05;;;;;;;74.20;55.70;;;13.80;85.50;;;;;;5144292;28;20046;-31
2021/12/14 07:52:36;;;;;;;;;;;13.90;85.40;;;;;;5105448;29;20114;-34
2021/12/14 07:55:14;;;;;;;99.47;68.33;;;13.90;85.10;;;;;;5104571;29;19969;-33
2021/12/14 07:57:45;;;;;;;94.73;63.17;;;13.90;85.10;;;;;;5103833;28;20058;-31
2021/12/14 08:00:24;;;;;;;100.37;70.10;;;14.00;85.00;;;;;;5144518;28;20051;-32
2021/12/14 08:02:57;;;;;;;92.73;62.30;;;14.00;85.00;;;;;;5112754;28;20051;-32
2021/12/14 08:05:33;;;;;;;80.25;54.97;;;14.00;85.00;;;;;;5128547;28;20051;-31
2021/12/14 08:08:10;;;;;;;80.30;55.43;;;14.00;85.00;;;;;;5144047;28;20053;-32
2021/12/14 08:10:49;;;;;;;78.63;52.57;;;14.10;85.00;;;;;;5144362;28;20043;-32
2021/12/14 08:13:21;;;;;;;78.00;52.13;;;14.10;84.90;;;;;;5144940;28;20110;-31
2021/12/14 08:15:55;;;;;;;80.75;55.45;;;14.10;84.90;;;;;;5128246;28;20055;-31
2021/12/14 08:18:27;;;;;;;;;;;14.10;84.80;;;;;;5128696;28;20051;-32
2021/12/14 08:21:06;;;;;;;72.37;50.10;;;14.20;84.80;;;;;;5144412;28;19922;-32
2021/12/14 08:23:54;;;;;;;72.13;51.80;;;14.10;84.80;;;;;;5128725;28;20428;-32
2021/12/14 08:26:37;;;;;;;74.93;51.67;;;14.10;84.80;;;;;;5144310;28;20050;-32
2021/12/14 08:29:16;;;;;;;81.78;54.25;;;14.20;84.90;;;;;;5200764;28;20041;-31
2021/12/14 08:31:54;;;;;;;76.67;53.23;;;14.10;84.80;;;;;;5207698;28;20052;-31
2021/12/14 08:34:27;;;;;;;73.60;51.90;;;14.10;84.80;;;;;;5190000;28;20042;-32
2021/12/14 08:37:04;;;;;;;;;;;14.10;84.80;;;;;;5189824;28;20104;-32
2021/12/14 08:39:42;;;;;;;66.40;47.90;;;14.20;84.80;;;;;;5207015;28;20294;-32
2021/12/14 08:42:19;;;;;;;77.83;52.77;;;14.10;84.80;;;;;;5189272;28;20045;-32
2021/12/14 08:44:54;;;;;;;69.10;48.97;;;14.10;84.90;;;;;;5206705;28;20053;-31
2021/12/14 08:47:35;;;;;;;73.40;53.77;;;14.20;85.00;;;;;;5173400;28;20079;-33
2021/12/14 08:50:11;;;;;;;80.30;59.33;;;14.10;85.00;;;;;;5207112;28;20140;-32
2021/12/14 08:52:42;;;;;;;257.00;208.47;;;14.10;85.00;;;;;;5207263;28;20122;-32
2021/12/14 08:55:14;;;;;;;99.13;78.53;;;14.20;85.10;;;;;;5206542;28;20168;-32
2021/12/14 08:57:45;;;;;;;73.00;52.23;;;14.10;85.10;;;;;;5189231;28;20049;-32
2021/12/14 09:00:28;;;;;;;66.30;47.13;;;14.10;85.30;;;;;;5189474;28;20042;-31
2021/12/14 09:03:01;;;;;;;65.97;47.60;;;14.10;85.40;;;;;;5206763;28;20069;-31
2021/12/14 09:05:36;;;;;;;64.90;45.97;;;14.10;85.40;;;;;;5189100;28;20049;-31
2021/12/14 09:08:07;;;;;;;63.60;48.17;;;14.10;85.50;;;;;;5189794;28;20577;-31
2021/12/14 09:10:38;;;;;;;64.90;46.67;;;14.10;85.60;;;;;;5206869;28;20124;-31
2021/12/14 09:13:10;;;;;;;67.53;52.23;;;14.10;85.40;;;;;;5189107;28;20091;-31
2021/12/14 09:16:04;;;;;;;63.77;50.37;;;14.30;85.40;;;;;;5209083;28;20498;-31
2021/12/14 09:18:41;;;;;;;70.13;50.03;;;14.30;85.30;;;;;;5193412;28;20053;-31
2021/12/14 09:21:17;;;;;;;81.93;59.67;;;14.30;85.20;;;;;;5210454;28;20053;-33
2021/12/14 09:23:51;;;;;;;67.97;52.90;;;14.30;85.10;;;;;;5176926;28;20095;-32
2021/12/14 09:26:23;;;;;;;70.37;50.53;;;14.30;85.10;;;;;;5192671;28;20406;-32
2021/12/14 09:28:54;;;;;;;67.13;45.10;;;14.30;85.20;;;;;;5192479;28;20505;-32
2021/12/14 09:31:36;;;;;;;65.23;47.07;;;14.30;85.10;;;;;;5210699;28;20120;-31
2021/12/14 09:34:12;;;;;;;66.13;47.20;;;14.30;85.10;;;;;;5192637;28;20113;-31
2021/12/14 09:36:43;;;;;;;62.80;44.23;;;14.30;85.20;;;;;;5210060;28;20390;-33
2021/12/14 09:39:22;;;;;;;76.87;57.77;;;14.30;85.30;;;;;;5209776;28;20052;-34
2021/12/14 09:41:55;;;;;;;61.43;46.97;;;14.30;85.40;;;;;;5210225;28;20605;-32
2021/12/14 09:44:27;;;;;;;64.63;47.30;;;14.30;85.50;;;;;;5192573;28;20407;-32
2021/12/14 09:47:04;;;;;;;68.17;52.53;;;14.40;85.60;;;;;;5192417;28;20052;-32
2021/12/14 09:49:37;;;;;;;86.00;68.50;;;14.40;85.60;;;;;;5210249;28;20049;-32
2021/12/14 09:52:14;;;;;;;70.20;54.07;;;14.40;85.60;;;;;;5209893;28;20483;-31
2021/12/14 09:54:45;;;;;;;79.63;58.00;;;14.40;85.70;;;;;;5209797;28;20911;-31
2021/12/14 09:57:27;;;;;;;69.03;50.03;;;14.40;85.60;;;;;;5209532;28;20394;-31
2021/12/14 10:00:00;;;;;;;;;;;14.40;85.60;;;;;;5210183;28;20118;-32
2021/12/14 10:02:34;;;;;;;68.90;51.53;;;14.40;85.50;;;;;;5209437;28;19921;-31
2021/12/14 10:05:33;;;;;;;61.37;46.80;;;14.40;85.70;;;;;;5176585;28;20049;-31
2021/12/14 10:08:17;;;;;;;79.07;55.63;;;14.40;85.50;;;;;;5190325;28;20499;-33
2021/12/14 10:11:04;;;;;;;80.07;59.63;;;14.40;85.50;;;;;;5209101;28;20037;-32
2021/12/14 10:13:38;;;;;;;74.47;53.07;;;14.40;85.50;;;;;;5191466;28;20049;-32
2021/12/14 10:16:10;;;;;;;70.83;50.43;;;14.40;85.60;;;;;;5208605;28;20140;-31
2021/12/14 10:18:43;;;;;;;63.60;45.83;;;14.50;85.70;;;;;;5191444;28;20407;-32
2021/12/14 10:21:20;;;;;;;69.60;47.87;;;14.50;85.80;;;;;;5209172;28;20045;-32
2021/12/14 10:23:51;;;;;;;67.43;46.30;;;14.50;85.90;;;;;;5208807;28;20045;-32
2021/12/14 10:26:23;;;;;;;62.60;45.60;;;14.50;85.90;;;;;;5174016;28;20057;-32
2021/12/14 10:28:55;;;;;;;65.80;50.83;;;14.50;86.10;;;;;;5208993;28;20053;-31
2021/12/14 10:31:31;;;;;;;66.57;49.92;;;14.50;86.10;;;;;;5207835;28;20080;-32
2021/12/14 10:34:04;;;;;;;115.33;79.90;;;14.40;86.00;;;;;;5191079;28;20129;-33
2021/12/14 10:36:40;;;;;;;72.45;54.38;;;14.50;86.10;;;;;;5175072;28;20559;-32
2021/12/14 10:39:37;;;;;;;63.63;49.13;;;14.40;86.20;;;;;;5191706;28;20056;-37
2021/12/14 10:45:03;;;;;;;97.90;81.70;;;14.40;86.40;;;;;;5208322;28;20372;-32
2021/12/14 10:47:34;;;;;;;73.53;58.60;;;14.40;86.50;;;;;;5191236;28;20061;-32
2021/12/14 10:50:10;;;;;;;59.73;46.13;;;14.40;86.60;;;;;;5208304;28;20407;-31
2021/12/14 10:52:43;;;;;;;77.80;64.67;;;14.30;86.70;;;;;;5191347;28;20475;-34
2021/12/14 10:55:23;;;;;;;66.95;53.42;;;14.40;86.80;;;;;;5208370;28;20053;-31
2021/12/14 10:57:54;;;;;;;63.77;49.87;;;14.40;86.90;;;;;;5208321;28;20069;-31
2021/12/14 11:00:33;;;;;;;68.30;49.60;;;14.30;87.10;;;;;;5208039;28;20506;-31
2021/12/14 11:03:09;;;;;;;58.70;44.17;;;14.40;87.20;;;;;;5208314;28;20103;-32
2021/12/14 11:05:43;;;;;;;61.67;45.47;;;14.40;87.10;;;;;;5208308;28;20064;-31
2021/12/14 11:11:09;;;;;;;66.73;50.13;;;14.40;87.00;;;;;;5208007;28;20042;-32
2021/12/14 11:13:52;;;;;;;72.60;53.77;;;14.50;87.00;;;;;;5191270;28;20053;-32
2021/12/14 11:18:08;;;;;;;66.53;53.58;;;14.40;86.80;;;;;;5207667;28;20045;-32
2021/12/14 11:19:43;;;;;;;64.90;49.17;;;14.50;86.90;;;;;;5193652;28;20096;-33
2021/12/14 11:22:31;;;;;;;63.73;47.57;;;14.40;86.80;;;;;;5207909;28;20487;-32
2021/12/14 11:25:07;;;;;;;57.30;44.93;;;14.40;86.70;;;;;;5191163;28;20037;-33
2021/12/14 11:28:09;;;;;;;54.67;40.17;;;14.40;86.70;;;;;;5207421;28;20411;-33
2021/12/14 11:31:06;;;;;;;53.83;39.67;;;14.40;86.80;;;;;;5206171;28;20128;-32
2021/12/14 11:33:42;;;;;;;51.70;37.93;;;14.40;86.80;;;;;;5189861;28;20391;-32
2021/12/14 11:36:24;;;;;;;57.90;42.53;;;14.40;86.90;;;;;;5190567;28;20120;-32
2021/12/14 11:39:24;;;;;;;61.60;41.80;;;14.30;86.90;;;;;;5143409;28;20130;-32
2021/12/14 11:41:56;;;;;;;66.60;46.00;;;14.30;86.80;;;;;;5144464;28;20122;-32
2021/12/14 11:44:34;;;;;;;63.95;46.75;;;14.30;86.90;;;;;;5144392;28;20051;-32
2021/12/14 11:47:47;;;;;;;56.93;42.63;;;14.30;86.80;;;;;;5144282;28;20400;-33
2021/12/14 11:50:35;;;;;;;62.42;45.03;;;14.30;86.70;;;;;;5104584;29;20130;-32
2021/12/14 11:53:06;;;;;;;62.03;45.17;;;14.30;86.70;;;;;;5104766;29;20059;-32
2021/12/14 11:55:41;;;;;;;70.13;53.43;;;14.30;86.50;;;;;;5104321;29;20098;-32
2021/12/14 11:58:18;;;;;;;63.53;48.10;;;14.30;86.50;;;;;;5103775;29;20047;-32
2021/12/14 12:01:08;;;;;;;73.00;54.17;;;14.30;86.50;;;;;;5104523;29;20399;-32
2021/12/14 12:04:03;;;;;;;61.03;44.73;;;14.20;86.50;;;;;;5130301;28;20110;-32
2021/12/14 12:09:52;;;;;;;61.30;47.77;;;14.20;86.40;;;;;;5123800;29;20067;-33
2021/12/14 12:12:34;;;;;;;71.70;55.87;;;14.20;86.40;;;;;;5124303;29;20058;-32
2021/12/14 12:15:14;;;;;;;73.53;54.77;;;14.30;87.00;;;;;;5124355;28;20062;-32
2021/12/14 12:17:53;;;;;;;69.27;54.00;;;14.30;86.40;;;;;;5108698;29;20058;-31
2021/12/14 12:20:42;;;;;;;59.30;44.53;;;14.30;86.40;;;;;;5108438;29;20059;-32
2021/12/14 12:23:24;;;;;;;62.20;46.00;;;14.30;86.40;;;;;;5123992;29;20079;-32
2021/12/14 12:26:00;;;;;;;65.73;44.67;;;14.30;86.40;;;;;;5119254;28;20054;-32
2021/12/14 12:28:37;;;;;;;60.13;44.83;;;14.30;86.50;;;;;;5143630;28;20094;-31
2021/12/14 12:31:25;;;;;;;56.13;42.67;;;14.30;86.40;;;;;;5128089;28;20408;-34
2021/12/14 12:34:11;;;;;;;60.38;44.38;;;14.20;86.40;;;;;;5128380;28;20050;-35
2021/12/14 12:36:47;;;;;;;61.83;43.47;;;14.30;86.50;;;;;;5129089;28;20408;-32
2021/12/14 12:39:25;;;;;;;61.23;45.03;;;14.20;86.30;;;;;;5127557;28;20063;-32
2021/12/14 12:41:58;;;;;;;59.90;42.03;;;14.20;86.30;;;;;;5143467;28;20523;-32
2021/12/14 12:44:32;;;;;;;62.63;44.67;;;14.20;86.30;;;;;;5127592;28;20133;-33
2021/12/14 12:47:15;;;;;;;60.60;43.03;;;14.20;86.30;;;;;;5169500;28;20050;-32
2021/12/14 12:49:54;;;;;;;68.18;46.40;;;14.20;86.30;;;;;;5188149;28;20552;-31
2021/12/14 12:52:32;;;;;;;63.23;45.30;;;14.20;86.40;;;;;;5189812;28;20045;-29
2021/12/14 12:55:10;;;;;;;66.87;46.27;;;14.30;86.30;;;;;;5189105;28;20113;-30
2021/12/14 12:57:42;;;;;;;71.63;52.40;;;14.40;86.10;;;;;;5190178;28;20423;-32
2021/12/14 13:00:37;;;;;;;67.67;48.07;;;14.40;86.00;;;;;;5190278;28;20041;-31
2021/12/14 13:03:20;;;;;;;84.00;72.90;;;14.40;85.90;;;;;;5190353;28;20053;-31
2021/12/14 13:06:03;;;;;;;75.07;60.13;;;14.40;85.70;;;;;;5190211;28;20077;-31
2021/12/14 13:08:40;;;;;;;68.50;54.80;;;14.40;85.80;;;;;;5210161;28;20060;-30
2021/12/14 13:11:17;;;;;;;70.57;52.63;;;14.40;85.80;;;;;;5192581;28;20171;-31
2021/12/14 13:13:49;;;;;;;75.40;56.50;;;14.40;85.70;;;;;;5192690;28;20076;-33
2021/12/14 13:16:26;;;;;;;76.60;52.43;;;14.40;85.60;;;;;;5210277;28;20052;-31
2021/12/14 13:19:01;;;;;;;67.03;48.30;;;14.40;85.60;;;;;;5193179;28;20050;-30
2021/12/14 13:21:52;;;;;;;65.80;50.77;;;14.50;85.70;;;;;;5209906;28;20049;-31
2021/12/14 13:24:26;;;;;;;59.17;44.83;;;14.50;85.80;;;;;;5210096;28;20069;-30
2021/12/14 13:27:17;;;;;;;62.00;43.67;;;14.50;86.10;;;;;;5192670;28;20037;-30
2021/12/14 13:32:43;;;;;;;64.70;45.60;;;14.40;86.00;;;;;;5196302;28;20041;-32
2021/12/14 13:35:21;;;;;;;64.40;43.70;;;14.40;86.10;;;;;;5209975;28;20041;-32
2021/12/14 13:38:04;;;;;;;62.63;45.53;;;14.40;86.10;;;;;;5209874;28;20391;-31
2021/12/14 13:40:43;;;;;;;62.37;44.10;;;14.40;86.30;;;;;;5177741;28;20042;-31
2021/12/14 13:43:18;;;;;;;58.13;39.97;;;14.40;86.30;;;;;;5176983;28;20045;-31
2021/12/14 13:46:12;;;;;;;62.97;43.80;;;14.30;86.40;;;;;;5209827;28;20509;-31
2021/12/14 13:48:52;;;;;;;51.30;40.73;;;14.30;86.50;;;;;;5199468;28;20060;-31
2021/12/14 13:51:29;;;;;;;59.40;45.40;;;14.30;86.60;;;;;;5209903;28;20390;-34
2021/12/14 13:54:15;;;;;;;63.40;49.63;;;14.30;86.60;;;;;;5192338;28;20041;-33